sensor_id;sensor_type;location;lat;lon;timestamp;P1;durP1;ratioP1;P2;durP2;ratioP2
60588;SDS011;46421;48.610;9.334;2023-12-07T00:01:10;7.15;;;3.45;;
60588;SDS011;46421;48.610;9.334;2023-12-07T00:03:36;10.83;;;3.43;;
60588;SDS011;46421;48.610;9.334;2023-12-07T00:06:14;7.97;;;3.38;;
60588;SDS011;46421;48.610;9.334;2023-12-07T00:08:41;12.95;;;4.85;;
60588;SDS011;46421;48.610;9.334;2023-12-07T00:11:07;9.25;;;2.83;;
60588;SDS011;46421;48.610;9.334;2023-12-07T00:13:32;10.52;;;4.43;;
60588;SDS011;46421;48.610;9.334;2023-12-07T00:15:57;8.25;;;3.55;;
60588;SDS011;46421;48.610;9.334;2023-12-07T00:18:23;8.50;;;3.92;;
60588;SDS011;46421;48.610;9.334;2023-12-07T00:20:49;9.17;;;3.20;;
60588;SDS011;46421;48.610;9.334;2023-12-07T00:23:14;8.13;;;3.50;;
60588;SDS011;46421;48.610;9.334;2023-12-07T00:25:40;8.02;;;3.33;;
60588;SDS011;46421;48.610;9.334;2023-12-07T00:28:05;9.47;;;3.37;;
60588;SDS011;46421;48.610;9.334;2023-12-07T00:30:30;9.43;;;3.50;;
60588;SDS011;46421;48.610;9.334;2023-12-07T00:32:56;7.53;;;3.53;;
60588;SDS011;46421;48.610;9.334;2023-12-07T00:35:21;8.83;;;3.40;;
60588;SDS011;46421;48.610;9.334;2023-12-07T00:37:47;8.93;;;4.00;;
60588;SDS011;46421;48.610;9.334;2023-12-07T00:40:13;8.05;;;3.75;;
60588;SDS011;46421;48.610;9.334;2023-12-07T00:42:39;9.85;;;3.33;;
60588;SDS011;46421;48.610;9.334;2023-12-07T00:45:04;10.57;;;3.80;;
60588;SDS011;46421;48.610;9.334;2023-12-07T00:47:35;9.73;;;3.45;;
60588;SDS011;46421;48.610;9.334;2023-12-07T00:50:00;8.50;;;3.37;;
60588;SDS011;46421;48.610;9.334;2023-12-07T00:52:26;9.13;;;3.30;;
60588;SDS011;46421;48.610;9.334;2023-12-07T00:54:52;8.90;;;3.97;;
60588;SDS011;46421;48.610;9.334;2023-12-07T00:57:17;9.57;;;3.88;;
60588;SDS011;46421;48.610;9.334;2023-12-07T00:59:44;8.70;;;3.38;;
60588;SDS011;46421;48.610;9.334;2023-12-07T01:02:10;9.23;;;3.85;;
60588;SDS011;46421;48.610;9.334;2023-12-07T01:04:36;8.63;;;3.42;;
60588;SDS011;46421;48.610;9.334;2023-12-07T01:07:01;9.23;;;3.50;;
60588;SDS011;46421;48.610;9.334;2023-12-07T01:09:27;9.15;;;4.00;;
60588;SDS011;46421;48.610;9.334;2023-12-07T01:12:01;9.48;;;4.07;;
60588;SDS011;46421;48.610;9.334;2023-12-07T01:14:26;9.93;;;4.07;;
60588;SDS011;46421;48.610;9.334;2023-12-07T01:16:51;10.83;;;4.03;;
60588;SDS011;46421;48.610;9.334;2023-12-07T01:19:17;9.00;;;3.93;;
60588;SDS011;46421;48.610;9.334;2023-12-07T01:21:42;9.50;;;4.23;;
60588;SDS011;46421;48.610;9.334;2023-12-07T01:24:08;8.65;;;3.83;;
60588;SDS011;46421;48.610;9.334;2023-12-07T01:26:34;11.52;;;4.32;;
60588;SDS011;46421;48.610;9.334;2023-12-07T01:29:01;10.93;;;4.38;;
60588;SDS011;46421;48.610;9.334;2023-12-07T01:31:29;9.30;;;3.75;;
60588;SDS011;46421;48.610;9.334;2023-12-07T01:33:55;8.40;;;3.85;;
60588;SDS011;46421;48.610;9.334;2023-12-07T01:36:20;9.63;;;3.40;;
60588;SDS011;46421;48.610;9.334;2023-12-07T01:38:46;9.02;;;3.92;;
60588;SDS011;46421;48.610;9.334;2023-12-07T01:41:12;8.32;;;3.65;;
60588;SDS011;46421;48.610;9.334;2023-12-07T01:43:43;8.50;;;3.72;;
60588;SDS011;46421;48.610;9.334;2023-12-07T01:46:10;9.95;;;4.20;;
60588;SDS011;46421;48.610;9.334;2023-12-07T01:48:35;8.65;;;3.65;;
60588;SDS011;46421;48.610;9.334;2023-12-07T01:51:07;8.98;;;4.10;;
60588;SDS011;46421;48.610;9.334;2023-12-07T01:53:33;8.88;;;3.80;;
60588;SDS011;46421;48.610;9.334;2023-12-07T01:55:58;10.68;;;4.28;;
60588;SDS011;46421;48.610;9.334;2023-12-07T01:58:24;11.00;;;4.30;;
60588;SDS011;46421;48.610;9.334;2023-12-07T02:00:50;10.82;;;4.20;;
60588;SDS011;46421;48.610;9.334;2023-12-07T02:03:16;8.00;;;3.60;;
60588;SDS011;46421;48.610;9.334;2023-12-07T02:05:42;9.57;;;4.10;;
60588;SDS011;46421;48.610;9.334;2023-12-07T02:08:11;9.23;;;3.72;;
60588;SDS011;46421;48.610;9.334;2023-12-07T02:10:36;10.05;;;3.90;;
60588;SDS011;46421;48.610;9.334;2023-12-07T02:13:02;11.23;;;3.67;;
60588;SDS011;46421;48.610;9.334;2023-12-07T02:15:29;10.57;;;4.28;;
60588;SDS011;46421;48.610;9.334;2023-12-07T02:20:55;10.68;;;3.63;;
60588;SDS011;46421;48.610;9.334;2023-12-07T02:23:26;11.95;;;4.13;;
60588;SDS011;46421;48.610;9.334;2023-12-07T02:28:56;7.97;;;3.28;;
60588;SDS011;46421;48.610;9.334;2023-12-07T02:31:22;8.50;;;3.67;;
60588;SDS011;46421;48.610;9.334;2023-12-07T02:33:48;13.10;;;3.95;;
60588;SDS011;46421;48.610;9.334;2023-12-07T02:36:15;7.93;;;3.33;;
60588;SDS011;46421;48.610;9.334;2023-12-07T02:38:42;10.85;;;3.70;;
60588;SDS011;46421;48.610;9.334;2023-12-07T02:41:09;7.22;;;3.58;;
60588;SDS011;46421;48.610;9.334;2023-12-07T02:43:36;11.63;;;4.18;;
60588;SDS011;46421;48.610;9.334;2023-12-07T02:46:01;7.95;;;3.25;;
60588;SDS011;46421;48.610;9.334;2023-12-07T02:48:26;9.63;;;3.33;;
60588;SDS011;46421;48.610;9.334;2023-12-07T02:50:58;9.55;;;4.03;;
60588;SDS011;46421;48.610;9.334;2023-12-07T02:53:23;9.50;;;3.60;;
60588;SDS011;46421;48.610;9.334;2023-12-07T02:55:49;10.27;;;3.93;;
60588;SDS011;46421;48.610;9.334;2023-12-07T02:58:15;12.52;;;3.47;;
60588;SDS011;46421;48.610;9.334;2023-12-07T03:00:42;10.10;;;3.90;;
60588;SDS011;46421;48.610;9.334;2023-12-07T03:03:09;8.77;;;3.60;;
60588;SDS011;46421;48.610;9.334;2023-12-07T03:05:35;9.87;;;3.60;;
60588;SDS011;46421;48.610;9.334;2023-12-07T03:08:00;7.90;;;3.10;;
60588;SDS011;46421;48.610;9.334;2023-12-07T03:10:26;11.60;;;4.05;;
60588;SDS011;46421;48.610;9.334;2023-12-07T03:12:54;10.77;;;3.67;;
60588;SDS011;46421;48.610;9.334;2023-12-07T03:15:21;11.70;;;3.70;;
60588;SDS011;46421;48.610;9.334;2023-12-07T03:17:46;10.32;;;3.55;;
60588;SDS011;46421;48.610;9.334;2023-12-07T03:20:12;7.77;;;2.90;;
60588;SDS011;46421;48.610;9.334;2023-12-07T03:22:37;8.05;;;3.60;;
60588;SDS011;46421;48.610;9.334;2023-12-07T03:25:03;9.27;;;4.05;;
60588;SDS011;46421;48.610;9.334;2023-12-07T03:27:29;11.23;;;3.90;;
60588;SDS011;46421;48.610;9.334;2023-12-07T03:29:54;7.72;;;4.03;;
60588;SDS011;46421;48.610;9.334;2023-12-07T03:32:20;7.93;;;3.37;;
60588;SDS011;46421;48.610;9.334;2023-12-07T03:34:45;10.63;;;3.30;;
60588;SDS011;46421;48.610;9.334;2023-12-07T03:37:10;9.33;;;3.17;;
60588;SDS011;46421;48.610;9.334;2023-12-07T03:39:36;7.53;;;3.60;;
60588;SDS011;46421;48.610;9.334;2023-12-07T03:42:10;8.60;;;3.30;;
60588;SDS011;46421;48.610;9.334;2023-12-07T03:44:36;9.60;;;3.88;;
60588;SDS011;46421;48.610;9.334;2023-12-07T03:47:01;7.75;;;3.05;;
60588;SDS011;46421;48.610;9.334;2023-12-07T03:49:26;9.35;;;3.55;;
60588;SDS011;46421;48.610;9.334;2023-12-07T03:52:02;10.70;;;3.27;;
60588;SDS011;46421;48.610;9.334;2023-12-07T03:54:29;8.55;;;3.85;;
60588;SDS011;46421;48.610;9.334;2023-12-07T03:56:54;10.70;;;3.50;;
60588;SDS011;46421;48.610;9.334;2023-12-07T03:59:20;7.83;;;3.30;;
60588;SDS011;46421;48.610;9.334;2023-12-07T04:01:45;8.60;;;3.47;;
60588;SDS011;46421;48.610;9.334;2023-12-07T04:04:11;10.07;;;3.72;;
60588;SDS011;46421;48.610;9.334;2023-12-07T04:06:37;9.70;;;3.33;;
60588;SDS011;46421;48.610;9.334;2023-12-07T04:09:03;8.63;;;3.28;;
60588;SDS011;46421;48.610;9.334;2023-12-07T04:11:29;10.27;;;2.92;;
60588;SDS011;46421;48.610;9.334;2023-12-07T04:13:54;7.82;;;2.83;;
60588;SDS011;46421;48.610;9.334;2023-12-07T04:16:21;9.02;;;2.95;;
60588;SDS011;46421;48.610;9.334;2023-12-07T04:18:59;10.25;;;3.85;;
60588;SDS011;46421;48.610;9.334;2023-12-07T04:21:36;9.75;;;3.15;;
60588;SDS011;46421;48.610;9.334;2023-12-07T04:24:03;7.65;;;3.10;;
60588;SDS011;46421;48.610;9.334;2023-12-07T04:26:29;6.10;;;2.95;;
60588;SDS011;46421;48.610;9.334;2023-12-07T04:28:54;10.20;;;3.60;;
60588;SDS011;46421;48.610;9.334;2023-12-07T04:31:20;9.45;;;3.30;;
60588;SDS011;46421;48.610;9.334;2023-12-07T04:33:46;8.15;;;3.20;;
60588;SDS011;46421;48.610;9.334;2023-12-07T04:36:11;7.70;;;3.55;;
60588;SDS011;46421;48.610;9.334;2023-12-07T04:38:37;8.00;;;3.03;;
60588;SDS011;46421;48.610;9.334;2023-12-07T04:41:02;10.13;;;3.97;;
60588;SDS011;46421;48.610;9.334;2023-12-07T04:43:28;11.27;;;3.95;;
60588;SDS011;46421;48.610;9.334;2023-12-07T04:48:42;8.05;;;3.08;;
60588;SDS011;46421;48.610;9.334;2023-12-07T04:51:08;8.23;;;2.95;;
60588;SDS011;46421;48.610;9.334;2023-12-07T04:53:34;8.32;;;3.45;;
60588;SDS011;46421;48.610;9.334;2023-12-07T04:56:00;6.83;;;2.87;;
60588;SDS011;46421;48.610;9.334;2023-12-07T04:58:25;9.83;;;3.57;;
60588;SDS011;46421;48.610;9.334;2023-12-07T05:00:50;7.90;;;3.03;;
60588;SDS011;46421;48.610;9.334;2023-12-07T05:03:19;6.63;;;3.15;;
60588;SDS011;46421;48.610;9.334;2023-12-07T05:05:46;9.27;;;2.92;;
60588;SDS011;46421;48.610;9.334;2023-12-07T05:08:13;5.75;;;2.70;;
60588;SDS011;46421;48.610;9.334;2023-12-07T05:10:38;5.57;;;2.75;;
60588;SDS011;46421;48.610;9.334;2023-12-07T05:13:16;10.20;;;3.78;;
60588;SDS011;46421;48.610;9.334;2023-12-07T05:15:43;7.30;;;3.15;;
60588;SDS011;46421;48.610;9.334;2023-12-07T05:18:09;8.50;;;2.95;;
60588;SDS011;46421;48.610;9.334;2023-12-07T05:20:34;6.57;;;2.35;;
60588;SDS011;46421;48.610;9.334;2023-12-07T05:23:01;6.25;;;2.83;;
60588;SDS011;46421;48.610;9.334;2023-12-07T05:27:53;7.20;;;2.73;;
60588;SDS011;46421;48.610;9.334;2023-12-07T05:30:19;7.22;;;2.58;;
60588;SDS011;46421;48.610;9.334;2023-12-07T05:32:45;7.03;;;3.00;;
60588;SDS011;46421;48.610;9.334;2023-12-07T05:35:10;6.57;;;2.73;;
60588;SDS011;46421;48.610;9.334;2023-12-07T05:37:37;7.18;;;2.90;;
60588;SDS011;46421;48.610;9.334;2023-12-07T05:40:11;6.60;;;2.65;;
60588;SDS011;46421;48.610;9.334;2023-12-07T05:42:44;8.93;;;3.58;;
60588;SDS011;46421;48.610;9.334;2023-12-07T05:45:09;7.65;;;3.20;;
60588;SDS011;46421;48.610;9.334;2023-12-07T05:47:35;10.50;;;3.53;;
60588;SDS011;46421;48.610;9.334;2023-12-07T05:50:01;9.70;;;3.28;;
60588;SDS011;46421;48.610;9.334;2023-12-07T05:52:28;13.10;;;4.00;;
60588;SDS011;46421;48.610;9.334;2023-12-07T05:54:54;5.63;;;2.40;;
60588;SDS011;46421;48.610;9.334;2023-12-07T05:57:20;7.83;;;2.37;;
60588;SDS011;46421;48.610;9.334;2023-12-07T05:59:45;7.93;;;3.10;;
60588;SDS011;46421;48.610;9.334;2023-12-07T06:02:11;7.28;;;2.50;;
60588;SDS011;46421;48.610;9.334;2023-12-07T06:04:36;8.73;;;2.65;;
60588;SDS011;46421;48.610;9.334;2023-12-07T06:07:03;7.55;;;3.03;;
60588;SDS011;46421;48.610;9.334;2023-12-07T06:09:28;6.67;;;2.33;;
60588;SDS011;46421;48.610;9.334;2023-12-07T06:11:54;8.80;;;2.78;;
60588;SDS011;46421;48.610;9.334;2023-12-07T06:14:20;13.32;;;3.30;;
60588;SDS011;46421;48.610;9.334;2023-12-07T06:16:46;7.07;;;2.65;;
60588;SDS011;46421;48.610;9.334;2023-12-07T06:19:16;9.60;;;3.05;;
60588;SDS011;46421;48.610;9.334;2023-12-07T06:21:43;7.85;;;2.63;;
60588;SDS011;46421;48.610;9.334;2023-12-07T06:24:11;7.97;;;2.78;;
60588;SDS011;46421;48.610;9.334;2023-12-07T06:26:36;7.60;;;2.67;;
60588;SDS011;46421;48.610;9.334;2023-12-07T06:29:02;5.93;;;2.37;;
60588;SDS011;46421;48.610;9.334;2023-12-07T06:31:33;6.47;;;2.42;;
60588;SDS011;46421;48.610;9.334;2023-12-07T06:33:59;8.20;;;2.85;;
60588;SDS011;46421;48.610;9.334;2023-12-07T06:36:28;6.07;;;2.63;;
60588;SDS011;46421;48.610;9.334;2023-12-07T06:38:53;7.65;;;2.47;;
60588;SDS011;46421;48.610;9.334;2023-12-07T06:41:20;8.05;;;2.83;;
60588;SDS011;46421;48.610;9.334;2023-12-07T06:43:46;5.68;;;2.85;;
60588;SDS011;46421;48.610;9.334;2023-12-07T06:46:12;6.90;;;2.40;;
60588;SDS011;46421;48.610;9.334;2023-12-07T06:48:57;5.97;;;2.50;;
60588;SDS011;46421;48.610;9.334;2023-12-07T06:51:22;7.47;;;2.78;;
60588;SDS011;46421;48.610;9.334;2023-12-07T06:53:48;7.15;;;2.70;;
60588;SDS011;46421;48.610;9.334;2023-12-07T06:56:13;5.32;;;2.35;;
60588;SDS011;46421;48.610;9.334;2023-12-07T06:58:39;6.75;;;2.42;;
60588;SDS011;46421;48.610;9.334;2023-12-07T07:01:05;5.82;;;2.55;;
60588;SDS011;46421;48.610;9.334;2023-12-07T07:03:30;6.40;;;2.58;;
60588;SDS011;46421;48.610;9.334;2023-12-07T07:05:56;7.63;;;3.22;;
60588;SDS011;46421;48.610;9.334;2023-12-07T07:08:21;6.35;;;2.38;;
60588;SDS011;46421;48.610;9.334;2023-12-07T07:10:47;6.20;;;2.17;;
60588;SDS011;46421;48.610;9.334;2023-12-07T07:13:12;7.97;;;2.78;;
60588;SDS011;46421;48.610;9.334;2023-12-07T07:15:41;6.78;;;2.78;;
60588;SDS011;46421;48.610;9.334;2023-12-07T07:18:07;7.20;;;2.40;;
60588;SDS011;46421;48.610;9.334;2023-12-07T07:20:33;6.32;;;2.38;;
60588;SDS011;46421;48.610;9.334;2023-12-07T07:22:59;8.98;;;2.65;;
60588;SDS011;46421;48.610;9.334;2023-12-07T07:25:39;8.52;;;2.60;;
60588;SDS011;46421;48.610;9.334;2023-12-07T07:28:11;8.05;;;2.67;;
60588;SDS011;46421;48.610;9.334;2023-12-07T07:33:03;7.65;;;2.22;;
60588;SDS011;46421;48.610;9.334;2023-12-07T07:35:29;4.65;;;2.15;;
60588;SDS011;46421;48.610;9.334;2023-12-07T07:37:54;7.18;;;2.50;;
60588;SDS011;46421;48.610;9.334;2023-12-07T07:40:20;7.43;;;2.58;;
60588;SDS011;46421;48.610;9.334;2023-12-07T07:42:45;7.18;;;2.50;;
60588;SDS011;46421;48.610;9.334;2023-12-07T07:45:11;6.05;;;2.58;;
60588;SDS011;46421;48.610;9.334;2023-12-07T07:47:36;5.83;;;2.40;;
60588;SDS011;46421;48.610;9.334;2023-12-07T07:50:02;6.05;;;2.35;;
60588;SDS011;46421;48.610;9.334;2023-12-07T07:52:47;4.97;;;2.15;;
60588;SDS011;46421;48.610;9.334;2023-12-07T07:55:14;7.05;;;2.55;;
60588;SDS011;46421;48.610;9.334;2023-12-07T07:57:39;7.97;;;2.53;;
60588;SDS011;46421;48.610;9.334;2023-12-07T08:00:05;7.50;;;2.80;;
60588;SDS011;46421;48.610;9.334;2023-12-07T08:02:33;7.03;;;2.90;;
60588;SDS011;46421;48.610;9.334;2023-12-07T08:04:58;7.60;;;2.53;;
60588;SDS011;46421;48.610;9.334;2023-12-07T08:07:24;6.70;;;3.05;;
60588;SDS011;46421;48.610;9.334;2023-12-07T08:09:50;9.50;;;2.97;;
60588;SDS011;46421;48.610;9.334;2023-12-07T08:12:15;6.68;;;2.35;;
60588;SDS011;46421;48.610;9.334;2023-12-07T08:14:41;5.97;;;2.55;;
60588;SDS011;46421;48.610;9.334;2023-12-07T08:19:41;6.63;;;2.60;;
60588;SDS011;46421;48.610;9.334;2023-12-07T08:22:16;7.25;;;2.25;;
60588;SDS011;46421;48.610;9.334;2023-12-07T08:24:42;7.97;;;2.88;;
60588;SDS011;46421;48.610;9.334;2023-12-07T08:27:08;6.07;;;2.42;;
60588;SDS011;46421;48.610;9.334;2023-12-07T08:29:34;8.32;;;3.53;;
60588;SDS011;46421;48.610;9.334;2023-12-07T08:32:00;7.53;;;3.42;;
60588;SDS011;46421;48.610;9.334;2023-12-07T08:34:26;6.88;;;3.17;;
60588;SDS011;46421;48.610;9.334;2023-12-07T08:36:52;5.93;;;2.60;;
60588;SDS011;46421;48.610;9.334;2023-12-07T08:39:17;7.40;;;2.85;;
60588;SDS011;46421;48.610;9.334;2023-12-07T08:41:42;5.80;;;2.90;;
60588;SDS011;46421;48.610;9.334;2023-12-07T08:44:08;7.45;;;2.90;;
60588;SDS011;46421;48.610;9.334;2023-12-07T08:46:33;7.40;;;2.90;;
60588;SDS011;46421;48.610;9.334;2023-12-07T08:48:59;6.82;;;3.22;;
60588;SDS011;46421;48.610;9.334;2023-12-07T08:51:24;5.90;;;3.05;;
60588;SDS011;46421;48.610;9.334;2023-12-07T08:53:50;6.55;;;3.47;;
60588;SDS011;46421;48.610;9.334;2023-12-07T08:56:17;6.47;;;2.88;;
60588;SDS011;46421;48.610;9.334;2023-12-07T08:58:56;6.13;;;2.75;;
60588;SDS011;46421;48.610;9.334;2023-12-07T09:01:22;10.63;;;3.22;;
60588;SDS011;46421;48.610;9.334;2023-12-07T09:03:48;7.20;;;2.97;;
60588;SDS011;46421;48.610;9.334;2023-12-07T09:06:13;8.47;;;3.03;;
60588;SDS011;46421;48.610;9.334;2023-12-07T09:08:38;7.28;;;3.28;;
60588;SDS011;46421;48.610;9.334;2023-12-07T09:11:04;8.65;;;3.63;;
60588;SDS011;46421;48.610;9.334;2023-12-07T09:13:31;7.38;;;3.10;;
60588;SDS011;46421;48.610;9.334;2023-12-07T09:15:56;7.97;;;3.38;;
60588;SDS011;46421;48.610;9.334;2023-12-07T09:18:22;7.85;;;3.28;;
60588;SDS011;46421;48.610;9.334;2023-12-07T09:20:48;6.20;;;2.95;;
60588;SDS011;46421;48.610;9.334;2023-12-07T09:23:15;10.05;;;3.40;;
60588;SDS011;46421;48.610;9.334;2023-12-07T09:25:43;9.18;;;3.30;;
60588;SDS011;46421;48.610;9.334;2023-12-07T09:28:16;6.93;;;2.75;;
60588;SDS011;46421;48.610;9.334;2023-12-07T09:30:42;8.07;;;2.73;;
60588;SDS011;46421;48.610;9.334;2023-12-07T09:33:07;10.02;;;3.85;;
60588;SDS011;46421;48.610;9.334;2023-12-07T09:35:32;7.80;;;3.30;;
60588;SDS011;46421;48.610;9.334;2023-12-07T09:38:03;8.95;;;3.17;;
60588;SDS011;46421;48.610;9.334;2023-12-07T09:40:30;8.05;;;3.50;;
60588;SDS011;46421;48.610;9.334;2023-12-07T09:42:55;8.48;;;2.67;;
60588;SDS011;46421;48.610;9.334;2023-12-07T09:45:21;8.48;;;3.40;;
60588;SDS011;46421;48.610;9.334;2023-12-07T09:47:47;6.00;;;2.83;;
60588;SDS011;46421;48.610;9.334;2023-12-07T09:50:15;7.20;;;3.28;;
60588;SDS011;46421;48.610;9.334;2023-12-07T09:52:49;6.32;;;3.03;;
60588;SDS011;46421;48.610;9.334;2023-12-07T09:55:32;7.60;;;3.10;;
60588;SDS011;46421;48.610;9.334;2023-12-07T09:57:58;7.80;;;2.92;;
60588;SDS011;46421;48.610;9.334;2023-12-07T10:00:24;7.90;;;3.47;;
60588;SDS011;46421;48.610;9.334;2023-12-07T10:02:51;8.17;;;3.33;;
60588;SDS011;46421;48.610;9.334;2023-12-07T10:05:16;10.88;;;3.85;;
60588;SDS011;46421;48.610;9.334;2023-12-07T10:07:43;10.13;;;3.15;;
60588;SDS011;46421;48.610;9.334;2023-12-07T10:10:09;8.18;;;3.33;;
60588;SDS011;46421;48.610;9.334;2023-12-07T10:12:45;9.45;;;3.42;;
60588;SDS011;46421;48.610;9.334;2023-12-07T10:15:21;8.15;;;3.28;;
60588;SDS011;46421;48.610;9.334;2023-12-07T10:20:24;7.57;;;3.60;;
60588;SDS011;46421;48.610;9.334;2023-12-07T10:23:08;10.90;;;4.38;;
60588;SDS011;46421;48.610;9.334;2023-12-07T10:25:38;11.48;;;4.22;;
60588;SDS011;46421;48.610;9.334;2023-12-07T10:30:36;11.57;;;4.10;;
60588;SDS011;46421;48.610;9.334;2023-12-07T10:33:06;10.52;;;3.85;;
60588;SDS011;46421;48.610;9.334;2023-12-07T10:35:41;11.05;;;4.40;;
60588;SDS011;46421;48.610;9.334;2023-12-07T10:38:11;8.70;;;4.03;;
60588;SDS011;46421;48.610;9.334;2023-12-07T10:40:38;6.85;;;2.85;;
60588;SDS011;46421;48.610;9.334;2023-12-07T10:43:04;7.95;;;3.67;;
60588;SDS011;46421;48.610;9.334;2023-12-07T10:45:30;7.82;;;3.55;;
60588;SDS011;46421;48.610;9.334;2023-12-07T10:48:00;7.40;;;3.22;;
60588;SDS011;46421;48.610;9.334;2023-12-07T10:50:33;8.63;;;3.58;;
60588;SDS011;46421;48.610;9.334;2023-12-07T10:53:01;8.20;;;3.53;;
60588;SDS011;46421;48.610;9.334;2023-12-07T10:55:53;9.93;;;3.17;;
60588;SDS011;46421;48.610;9.334;2023-12-07T10:58:21;8.68;;;3.53;;
60588;SDS011;46421;48.610;9.334;2023-12-07T11:00:50;7.20;;;3.00;;
60588;SDS011;46421;48.610;9.334;2023-12-07T11:05:44;7.80;;;3.13;;
60588;SDS011;46421;48.610;9.334;2023-12-07T11:08:21;7.55;;;3.25;;
60588;SDS011;46421;48.610;9.334;2023-12-07T11:13:45;7.68;;;3.05;;
60588;SDS011;46421;48.610;9.334;2023-12-07T11:16:14;9.02;;;3.58;;
60588;SDS011;46421;48.610;9.334;2023-12-07T11:18:40;8.52;;;3.25;;
60588;SDS011;46421;48.610;9.334;2023-12-07T11:21:06;7.30;;;2.95;;
60588;SDS011;46421;48.610;9.334;2023-12-07T11:23:31;8.40;;;3.13;;
60588;SDS011;46421;48.610;9.334;2023-12-07T11:25:56;6.20;;;3.08;;
60588;SDS011;46421;48.610;9.334;2023-12-07T11:28:38;7.28;;;3.03;;
60588;SDS011;46421;48.610;9.334;2023-12-07T11:31:08;9.30;;;3.70;;
60588;SDS011;46421;48.610;9.334;2023-12-07T11:33:33;11.65;;;3.83;;
60588;SDS011;46421;48.610;9.334;2023-12-07T11:36:03;9.95;;;3.47;;
60588;SDS011;46421;48.610;9.334;2023-12-07T11:38:36;9.52;;;3.35;;
60588;SDS011;46421;48.610;9.334;2023-12-07T11:41:02;10.60;;;3.75;;
60588;SDS011;46421;48.610;9.334;2023-12-07T11:46:06;6.82;;;3.03;;
60588;SDS011;46421;48.610;9.334;2023-12-07T11:48:32;6.30;;;3.30;;
60588;SDS011;46421;48.610;9.334;2023-12-07T11:50:58;7.10;;;3.60;;
60588;SDS011;46421;48.610;9.334;2023-12-07T11:53:26;8.13;;;3.75;;
60588;SDS011;46421;48.610;9.334;2023-12-07T11:55:57;7.63;;;3.28;;
60588;SDS011;46421;48.610;9.334;2023-12-07T11:58:26;7.22;;;3.35;;
60588;SDS011;46421;48.610;9.334;2023-12-07T12:00:55;7.57;;;3.72;;
60588;SDS011;46421;48.610;9.334;2023-12-07T12:03:24;8.40;;;3.45;;
60588;SDS011;46421;48.610;9.334;2023-12-07T12:05:54;5.70;;;3.05;;
60588;SDS011;46421;48.610;9.334;2023-12-07T12:08:29;7.57;;;3.42;;
60588;SDS011;46421;48.610;9.334;2023-12-07T12:10:56;7.97;;;3.47;;
60588;SDS011;46421;48.610;9.334;2023-12-07T12:13:33;6.75;;;3.30;;
60588;SDS011;46421;48.610;9.334;2023-12-07T12:16:01;7.00;;;3.25;;
60588;SDS011;46421;48.610;9.334;2023-12-07T12:18:26;6.32;;;2.97;;
60588;SDS011;46421;48.610;9.334;2023-12-07T12:20:52;6.50;;;2.90;;
60588;SDS011;46421;48.610;9.334;2023-12-07T12:23:31;6.88;;;2.78;;
60588;SDS011;46421;48.610;9.334;2023-12-07T12:25:58;6.80;;;3.30;;
60588;SDS011;46421;48.610;9.334;2023-12-07T12:28:24;7.68;;;3.30;;
60588;SDS011;46421;48.610;9.334;2023-12-07T12:30:49;8.82;;;3.25;;
60588;SDS011;46421;48.610;9.334;2023-12-07T12:33:15;7.35;;;3.08;;
60588;SDS011;46421;48.610;9.334;2023-12-07T12:35:41;7.60;;;3.22;;
60588;SDS011;46421;48.610;9.334;2023-12-07T12:38:10;5.80;;;2.38;;
60588;SDS011;46421;48.610;9.334;2023-12-07T12:40:36;4.40;;;1.40;;
60588;SDS011;46421;48.610;9.334;2023-12-07T12:43:02;4.18;;;1.60;;
60588;SDS011;46421;48.610;9.334;2023-12-07T12:45:27;4.10;;;1.10;;
60588;SDS011;46421;48.610;9.334;2023-12-07T12:47:53;3.17;;;1.20;;
60588;SDS011;46421;48.610;9.334;2023-12-07T12:53:05;2.95;;;0.85;;
60588;SDS011;46421;48.610;9.334;2023-12-07T12:57:58;1.38;;;0.63;;
60588;SDS011;46421;48.610;9.334;2023-12-07T13:00:24;2.08;;;0.70;;
60588;SDS011;46421;48.610;9.334;2023-12-07T13:02:50;3.22;;;1.02;;
60588;SDS011;46421;48.610;9.334;2023-12-07T13:05:15;2.30;;;0.63;;
60588;SDS011;46421;48.610;9.334;2023-12-07T13:07:40;2.15;;;0.80;;
60588;SDS011;46421;48.610;9.334;2023-12-07T13:10:06;1.70;;;0.70;;
60588;SDS011;46421;48.610;9.334;2023-12-07T13:12:33;1.48;;;0.63;;
60588;SDS011;46421;48.610;9.334;2023-12-07T13:15:00;2.28;;;0.85;;
60588;SDS011;46421;48.610;9.334;2023-12-07T13:17:39;1.80;;;0.68;;
60588;SDS011;46421;48.610;9.334;2023-12-07T13:20:07;1.80;;;0.68;;
60588;SDS011;46421;48.610;9.334;2023-12-07T13:22:37;2.65;;;0.75;;
60588;SDS011;46421;48.610;9.334;2023-12-07T13:25:04;2.58;;;0.70;;
60588;SDS011;46421;48.610;9.334;2023-12-07T13:27:32;2.40;;;0.80;;
60588;SDS011;46421;48.610;9.334;2023-12-07T13:30:00;3.85;;;0.70;;
60588;SDS011;46421;48.610;9.334;2023-12-07T13:32:43;2.42;;;0.85;;
60588;SDS011;46421;48.610;9.334;2023-12-07T13:35:10;4.18;;;1.08;;
60588;SDS011;46421;48.610;9.334;2023-12-07T13:37:35;2.55;;;0.90;;
60588;SDS011;46421;48.610;9.334;2023-12-07T13:40:01;2.42;;;0.85;;
60588;SDS011;46421;48.610;9.334;2023-12-07T13:42:29;2.65;;;0.90;;
60588;SDS011;46421;48.610;9.334;2023-12-07T13:47:22;2.13;;;0.80;;
60588;SDS011;46421;48.610;9.334;2023-12-07T13:50:00;2.30;;;0.85;;
60588;SDS011;46421;48.610;9.334;2023-12-07T13:52:25;2.55;;;0.90;;
60588;SDS011;46421;48.610;9.334;2023-12-07T13:54:51;3.58;;;0.82;;
60588;SDS011;46421;48.610;9.334;2023-12-07T13:57:17;2.85;;;1.00;;
60588;SDS011;46421;48.610;9.334;2023-12-07T13:59:49;2.65;;;0.70;;
60588;SDS011;46421;48.610;9.334;2023-12-07T14:02:16;2.00;;;0.75;;
60588;SDS011;46421;48.610;9.334;2023-12-07T14:04:42;3.40;;;1.02;;
60588;SDS011;46421;48.610;9.334;2023-12-07T14:07:12;2.63;;;0.93;;
60588;SDS011;46421;48.610;9.334;2023-12-07T14:09:42;2.92;;;1.02;;
60588;SDS011;46421;48.610;9.334;2023-12-07T14:12:09;6.13;;;1.25;;
60588;SDS011;46421;48.610;9.334;2023-12-07T14:14:53;4.60;;;1.10;;
60588;SDS011;46421;48.610;9.334;2023-12-07T14:17:22;1.60;;;0.82;;
60588;SDS011;46421;48.610;9.334;2023-12-07T14:19:48;2.50;;;0.93;;
60588;SDS011;46421;48.610;9.334;2023-12-07T14:22:14;3.20;;;1.17;;
60588;SDS011;46421;48.610;9.334;2023-12-07T14:24:40;2.08;;;0.90;;
60588;SDS011;46421;48.610;9.334;2023-12-07T14:27:07;4.13;;;1.13;;
60588;SDS011;46421;48.610;9.334;2023-12-07T14:29:33;3.45;;;1.10;;
60588;SDS011;46421;48.610;9.334;2023-12-07T14:32:27;3.40;;;0.85;;
60588;SDS011;46421;48.610;9.334;2023-12-07T14:34:54;2.72;;;0.90;;
60588;SDS011;46421;48.610;9.334;2023-12-07T14:37:20;2.92;;;0.98;;
60588;SDS011;46421;48.610;9.334;2023-12-07T14:39:46;3.50;;;1.08;;
60588;SDS011;46421;48.610;9.334;2023-12-07T14:42:12;4.05;;;1.30;;
60588;SDS011;46421;48.610;9.334;2023-12-07T14:44:44;2.08;;;0.90;;
60588;SDS011;46421;48.610;9.334;2023-12-07T14:47:22;3.85;;;1.10;;
60588;SDS011;46421;48.610;9.334;2023-12-07T14:49:47;3.03;;;1.20;;
60588;SDS011;46421;48.610;9.334;2023-12-07T14:52:14;3.80;;;1.25;;
60588;SDS011;46421;48.610;9.334;2023-12-07T14:54:40;3.67;;;0.98;;
60588;SDS011;46421;48.610;9.334;2023-12-07T14:57:06;4.03;;;1.50;;
60588;SDS011;46421;48.610;9.334;2023-12-07T14:59:33;3.08;;;1.10;;
60588;SDS011;46421;48.610;9.334;2023-12-07T15:01:59;4.18;;;1.20;;
60588;SDS011;46421;48.610;9.334;2023-12-07T15:04:25;3.72;;;1.42;;
60588;SDS011;46421;48.610;9.334;2023-12-07T15:06:51;2.33;;;0.98;;
60588;SDS011;46421;48.610;9.334;2023-12-07T15:09:18;2.28;;;0.75;;
60588;SDS011;46421;48.610;9.334;2023-12-07T15:14:37;4.70;;;1.20;;
60588;SDS011;46421;48.610;9.334;2023-12-07T15:17:02;3.73;;;1.17;;
60588;SDS011;46421;48.610;9.334;2023-12-07T15:19:29;4.50;;;1.25;;
60588;SDS011;46421;48.610;9.334;2023-12-07T15:21:54;3.92;;;0.93;;
60588;SDS011;46421;48.610;9.334;2023-12-07T15:24:20;2.97;;;1.25;;
60588;SDS011;46421;48.610;9.334;2023-12-07T15:26:45;4.07;;;1.52;;